Hlavní strana
METAR-TAF:

METAR-TAF

Letiště :

Nowra, Austrálie

zeměpisná šířka: 34-57S, zeměpisná délka: 150-32E, výška: 122 m

Aktuální stav počasí

Zpráva byla vytvořena před 37 minutami, v 13:00 UTC
Bezvětří
Teplota 15°C
Vlhkost vzduchu 100%
Tlak 1026 hPa
Viditelnost 10 km a více
Zataženo ve výšce 7800 ft

METAR: YSNW 081300Z AUTO 00000KT 9999 // OVC078 15/15 Q1026

Čas: 23:37 (13:37 UTC)


TAF: chybějící

Stav a předpovědi počasí z více než 4 000 letišť (zprávy METAR a TAF).

Červené a žluté tečky na mapě představují dostupné meteorologické stanice.

Když kurzor umístíte na tečku, zobrazí se název stanice.

Pak kliknutím zobrazíte stav a předpověď počasí.

Chcete-li změnit mapu, kliknutím na zelené tlačítko se znaménkem +mapu přiblížíte, kliknutím na zelené tlačítko se znaménkem – mapu oddálíte a kliknutím na zelené šipky přejdete na sousední mapy.


METAR-TAF: